Nearby METAR Reports

 

CWGT - Sisters Island (Auto)
Distance from station: NE 39km
Updated: 2020-04-05 02:00

 Wind from WNW
Wind: WNW 22 km/h
Temperature: 6°C
Wind Chill: 2°C
Dew Point: 2°C
Humidity: 76%
2020/04/05 09:00 CWGT 050900Z AUTO 29012KT 06/02 RMK AO1 SLP053 T00600016 57008
CWGB - Ballenas Island (Auto)
Distance from station: ENE 47km
Updated: 2020-02-25 17:00
NOT Current

 Wind from ESE
Wind: ESE 30 km/h
Temperature: 6°C
Wind Chill: 2°C
Dew Point: 2°C
Humidity: 76%
2020/02/26 01:00 CWGB 260100Z AUTO 12016KT 06/02 RMK AO1 PK WND 11021/0009 SLP317 T00580015 58008
CYQQ - CFB Comox
Distance from station: N 55km
Updated: 2020-04-05 02:00
Overcast
Overcast
 Wind from W
Wind: W 9 km/h
Temperature: 3°C
Wind Chill: 0°C
Dew Point: -1°C
Humidity: 75%
Barometer: 1006.1 hPa
Clouds: Overcast
Visibility: 32 km
Cloud details: Partly cloudy 2316 m
Overcast 7620 m
2020/04/05 09:00 CYQQ 050900Z 27005KT 20SM SCT076 OVC250 03/M01 A2971 RMK AC4CI4 SLP060
 
CYPW - Powell River Airport
Distance from station: NNE 69km
Updated: 2020-04-04 19:00
NOT Current
Mostly cloudy
Mostly cloudy
 Wind from W
Wind: W 15 km/h
Temperature: 5°C
Wind Chill: 2°C
Dew Point: 2°C
Humidity: 81%
Barometer: 1006.8 hPa
Clouds: Mostly cloudy
Visibility: 32 km
Cloud details: Few Clouds 1524 m
Partly cloudy 2347 m
Mostly cloudy 7315 m
2020/04/05 02:00 CYPW 050200Z 27008KT 20SM FEW050 SCT077 BKN240 05/02 A2973 RMK SC2AC2CI3 LAST STFD OBS NEXT OBS 051300 UTC SLP074
CYCD - Nanaimo Airport
Distance from station: ESE 70km
Updated: 2020-04-04 21:00
NOT Current
Mostly cloudy
Mostly cloudy
 Wind from W
Wind: W 6 km/h
Temperature: 5°C
Dew Point: 1°C
Humidity: 76%
Barometer: 1006.4 hPa
Clouds: Mostly cloudy
Visibility: 24 km
Cloud details: Mostly cloudy 2316 m
Mostly cloudy 4877 m
Mostly cloudy 7010 m
2020/04/05 04:00 CYCD 050400Z 27003KT 15SM BKN076 BKN160 BKN230 05/01 A2972 RMK AC5AC2CI1 CI TR LAST STFD OBS/NEXT 051300Z SLP065
CYAZ - Tofino Airport
Distance from station: WSW 73km
Updated: 2020-04-04 18:00
NOT Current
Mostly cloudy
Mostly cloudy
 Wind from WNW
Wind: WNW 17 km/h
Temperature: 6°C
Wind Chill: 3°C
Dew Point: 0°C
Humidity: 66%
Barometer: 1006.4 hPa
Clouds: Mostly cloudy
Visibility: 24 km
Cloud details: Mostly cloudy 1676 m
2020/04/05 01:00 CYAZ 050100Z 29009KT 15SM BKN055 06/00 A2972 RMK SC7 LAST STFD OBS/NEXT 051300UTC SLP067
 
CWEL - Entrance Island (Auto)
Distance from station: E 73km
Updated: 2020-04-05 02:00

 Wind from NNW
Wind: NNW 28 km/h
Temperature: 7°C
Wind Chill: 3°C
Dew Point: 3°C
Humidity: 76%
2020/04/05 09:00 CWEL 050900Z AUTO 33015KT 07/03 RMK AO1 PK WND 33018/0848 SLP050 T00710026 58008
CYBL - Campbell River Airport
Distance from station: NNW 88km
Updated: 2020-04-04 21:00
NOT Current
Mostly cloudy
Mostly cloudy
 Wind from varies
Wind: varies 4 km/h
Temperature: 2°C
Dew Point: 0°C
Humidity: 87%
Barometer: 1007.1 hPa
Clouds: Mostly cloudy
Visibility: 32 km
Cloud details: Few Clouds 610 m
Mostly cloudy 2286 m
Mostly cloudy 7620 m
2020/04/05 04:00 CYBL 050400Z VRB02KT 20SM FEW020 BKN075 BKN250 02/00 A2974 RMK SC1AC5CI1 SC TR LAST STFD OBS / NEXT 051300 UTC SLP075
CWKH - Malahat Highway (Auto)
Distance from station: SE 116km
Updated: 2020-04-05 02:00

 
Temperature: 3°C
2020/04/05 09:00 CWKH 050900Z AUTO 03/ RMK AO1 SLP031 T0031 56008
 
CYVR - Vancouver Intl Airport
Distance from station: E 118km
Updated: 2020-04-05 02:00
Overcast
Overcast
 Wind from NNE
Wind: NNE 6 km/h
Temperature: 4°C
Dew Point: -1°C
Humidity: 70%
Barometer: 1004.7 hPa
Clouds: Overcast
Visibility: 32 km
Cloud details: Few Clouds 2652 m
Overcast 4877 m
2020/04/05 09:00 CYVR 050900Z 03003KT 320V060 20SM FEW087 OVC160 04/M01 A2967 RMK AC1AC7 SLP048
CYYJ - Victoria Intl Airport
Distance from station: ESE 120km
Updated: 2020-04-05 02:00
Mostly cloudy
Mostly cloudy
 Wind from W
Wind: W 7 km/h
Temperature: 5°C
Wind Chill: 3°C
Dew Point: 0°C
Humidity: 70%
Barometer: 1004.4 hPa
Clouds: Mostly cloudy
Visibility: 48 km
Cloud details: Mostly cloudy 2743 m
Mostly cloudy 4267 m
2020/04/05 09:00 CYYJ 050900Z 26004KT 30SM BKN090 BKN140 05/00 A2966 RMK AC5AC2 SLP046
CWEB - Estevan Pt. (Auto)
Distance from station: W 129km
Updated: 2020-04-05 02:00

 Wind from ENE
Wind: ENE 7 km/h
Temperature: 2°C
Wind Chill: 0°C
Dew Point: 1°C
Humidity: 93%
2020/04/05 09:00 CWEB 050900Z AUTO 07004KT 02/01 RMK AO1 SLP055 T00220010 56007
 
CWQK - Race Rocks (Auto)
Distance from station: SE 138km
Updated: 2020-04-05 02:00

 Wind from E
Wind: E 11 km/h
Temperature: 7°C
Wind Chill: 5°C
Dew Point: -1°C
Humidity: 57%
2020/04/05 09:00 CWQK 050900Z AUTO 08006KT 07/M01 RMK AO1 SLP043 T00661008 57007
CWAE - Whistler
Distance from station: NE 167km
Updated: 2020-04-04 18:00
NOT Current
Overcast
Overcast
 Wind from N
Wind: N 4 km/h
Temperature: 4°C
Dew Point: -7°C
Humidity: 45%
Barometer: 1004.7 hPa
Clouds: Overcast
Visibility: 24 km
Cloud details: Few Clouds 1585 m
Overcast 2195 m
2020/04/05 01:00 CWAE 050100Z 36002KT 15SM FEW052 OVC072 04/M07 A2967 RMK SC1AC7 LAST OBS/NEXT 051300UTC WND ESTD SLP066
CYZT - Port Hardy Airport
Distance from station: NW 244km
Updated: 2020-04-05 02:00
Clear
Clear
 Wind from SSW
Wind: SSW 7 km/h
Temperature: 0°C
Wind Chill: -3°C
Dew Point: -1°C
Humidity: 93%
Barometer: 1006.8 hPa
Clouds: Clear
Visibility: 24 km
2020/04/05 09:00 CYZT 050900Z 21004KT 15SM SKC M00/M01 A2973 RMK SLP069
 
CWRU - Solander Isl (Auto)
Distance from station: WNW 247km
Updated: 2020-04-05 02:00

 Wind from NNE
Wind: NNE 24 km/h
Temperature: 4°C
Wind Chill: -1°C
2020/04/05 09:00 CWRU 050900Z AUTO 03013KT 04/ RMK AO1 PK WND 00024/0800 SLP031 T0037 56009